createdAt,value
2023-03-10T00:02:48.037Z,529.38
2023-03-10T00:07:55.656Z,529.37
2023-03-10T00:13:03.090Z,530.21
2023-03-10T00:18:10.395Z,531.07
2023-03-10T00:23:17.800Z,532.57
2023-03-10T00:28:25.419Z,533.89
2023-03-10T00:33:35.296Z,534.92
2023-03-10T00:38:41.011Z,536.39
2023-03-10T00:43:48.471Z,537.70
2023-03-10T00:48:56.081Z,537.58
2023-03-10T00:54:06.676Z,538.25
2023-03-10T00:59:17.148Z,539.29
2023-03-10T01:04:24.686Z,539.27
2023-03-10T01:09:32.155Z,539.74
2023-03-10T01:14:39.636Z,541.03
2023-03-10T01:19:47.086Z,542.50
2023-03-10T01:24:54.511Z,542.94
2023-03-10T01:30:02.086Z,544.08
2023-03-10T01:35:09.403Z,544.09
2023-03-10T01:40:16.956Z,545.16
2023-03-10T01:45:24.280Z,545.68
2023-03-10T01:50:34.685Z,547.18
2023-03-10T01:55:42.193Z,547.38
2023-03-10T02:00:49.594Z,546.80
2023-03-10T02:05:56.802Z,546.80
2023-03-10T02:11:04.221Z,546.53
2023-03-10T02:16:11.661Z,544.66
2023-03-10T02:21:19.084Z,542.33
2023-03-10T02:26:26.429Z,541.20
2023-03-10T02:31:33.878Z,539.72
2023-03-10T02:36:41.121Z,539.61
2023-03-10T02:41:48.530Z,540.26
2023-03-10T02:46:55.933Z,540.70
2023-03-10T02:52:03.238Z,541.28
2023-03-10T02:57:10.542Z,541.91
2023-03-10T03:02:17.839Z,540.82
2023-03-10T03:07:25.066Z,541.50
2023-03-10T03:12:32.306Z,541.46
2023-03-10T03:17:39.699Z,541.13
2023-03-10T03:22:46.913Z,541.01
2023-03-10T03:27:54.183Z,542.12
2023-03-10T03:33:01.455Z,542.43
2023-03-10T03:38:08.647Z,541.95
2023-03-10T03:43:16.031Z,542.28
2023-03-10T03:48:23.356Z,540.81
2023-03-10T03:53:30.383Z,539.92
2023-03-10T03:58:37.594Z,539.53
2023-03-10T04:03:44.929Z,539.12
2023-03-10T04:08:52.076Z,540.26
2023-03-10T04:13:59.347Z,540.89
2023-03-10T04:19:06.560Z,541.86
2023-03-10T04:24:13.715Z,542.36
2023-03-10T04:29:20.942Z,542.19
2023-03-10T04:34:28.207Z,543.44
2023-03-10T04:39:35.336Z,545.23
2023-03-10T04:44:42.538Z,544.53
2023-03-10T04:49:49.972Z,545.60
2023-03-10T04:54:57.136Z,545.96
2023-03-10T05:00:04.424Z,546.19
2023-03-10T05:05:11.606Z,548.64
2023-03-10T05:10:18.770Z,549.21
2023-03-10T05:15:26.001Z,550.58
2023-03-10T05:20:33.285Z,552.08
2023-03-10T05:25:40.415Z,551.42
2023-03-10T05:30:47.614Z,551.37
2023-03-10T05:35:54.961Z,550.66
2023-03-10T05:41:02.088Z,551.64
2023-03-10T05:46:09.259Z,552.65
2023-03-10T05:51:16.537Z,554.61
2023-03-10T05:56:23.727Z,554.72
2023-03-10T06:01:30.905Z,555.83
2023-03-10T06:06:38.116Z,556.23
2023-03-10T06:11:45.768Z,556.65
2023-03-10T06:16:53.069Z,556.43
2023-03-10T06:22:00.169Z,556.96
2023-03-10T06:27:07.337Z,558.58
2023-03-10T06:32:14.570Z,558.47
2023-03-10T06:37:21.732Z,559.56
2023-03-10T06:42:28.927Z,559.11
2023-03-10T06:47:36.191Z,559.19
2023-03-10T06:52:43.378Z,560.81
2023-03-10T06:57:50.549Z,560.95
2023-03-10T07:02:57.737Z,561.69
2023-03-10T07:08:04.970Z,561.48
2023-03-10T07:13:12.134Z,563.25
2023-03-10T07:18:19.323Z,563.06
2023-03-10T07:23:26.627Z,564.75
2023-03-10T07:28:33.875Z,564.01
2023-03-10T07:33:41.150Z,561.42
2023-03-10T07:38:48.359Z,560.41
2023-03-10T07:43:55.517Z,559.26
2023-03-10T07:49:02.801Z,557.60
2023-03-10T07:54:10.052Z,556.72
2023-03-10T07:59:17.359Z,553.69
2023-03-10T08:04:24.831Z,551.64
2023-03-10T08:09:31.851Z,551.73
2023-03-10T08:14:39.180Z,551.01
2023-03-10T08:19:46.193Z,547.50
2023-03-10T08:24:53.399Z,545.79
2023-03-10T08:30:00.689Z,546.02
2023-03-10T08:35:07.855Z,550.92
2023-03-10T08:40:15.066Z,547.92
2023-03-10T08:45:22.253Z,535.95
2023-03-10T08:50:29.532Z,533.71
2023-03-10T08:55:36.850Z,534.07
2023-03-10T09:00:44.055Z,534.72
2023-03-10T09:05:51.205Z,535.15
2023-03-10T09:10:58.463Z,534.49
2023-03-10T09:16:05.744Z,536.02
2023-03-10T09:21:12.849Z,537.05
2023-03-10T09:26:20.210Z,535.99
2023-03-10T09:31:27.356Z,536.91
2023-03-10T09:36:34.625Z,536.84
2023-03-10T09:41:41.917Z,536.83
2023-03-10T09:46:49.156Z,538.74
2023-03-10T09:51:56.448Z,536.78
2023-03-10T09:57:03.735Z,537.68
2023-03-10T10:02:10.978Z,538.17
2023-03-10T10:07:18.183Z,539.76
2023-03-10T10:12:25.389Z,539.88
2023-03-10T10:17:35.371Z,540.41
2023-03-10T10:22:39.731Z,542.01
2023-03-10T10:27:47.047Z,542.41
2023-03-10T10:32:54.495Z,544.02
2023-03-10T10:38:01.499Z,542.81
2023-03-10T10:43:08.770Z,543.52
2023-03-10T10:48:16.039Z,544.38
2023-03-10T10:53:23.221Z,545.16
2023-03-10T10:58:30.461Z,545.28
2023-03-10T11:03:37.729Z,545.10
2023-03-10T11:08:44.896Z,544.07
2023-03-10T11:13:52.250Z,544.85
2023-03-10T11:18:59.499Z,544.89
2023-03-10T11:24:06.852Z,544.77
2023-03-10T11:29:14.228Z,542.73
2023-03-10T11:34:21.476Z,539.66
2023-03-10T11:39:28.777Z,538.82
2023-03-10T11:44:36.222Z,537.49
2023-03-10T11:49:43.573Z,534.96
2023-03-10T11:54:50.830Z,533.19
2023-03-10T11:59:58.064Z,533.55
2023-03-10T12:05:05.363Z,535.55
2023-03-10T12:10:12.652Z,534.67
2023-03-10T12:15:20.056Z,537.28
2023-03-10T12:20:27.163Z,534.62
2023-03-10T12:25:34.362Z,535.47
2023-03-10T12:30:41.572Z,533.08
2023-03-10T12:35:48.948Z,532.34
2023-03-10T12:40:56.305Z,536.83
2023-03-10T12:46:03.515Z,535.70
2023-03-10T12:51:10.669Z,534.87
2023-03-10T12:56:17.854Z,534.62
2023-03-10T13:01:25.199Z,533.79
2023-03-10T13:06:32.336Z,532.46
2023-03-10T13:11:39.611Z,532.40
2023-03-10T13:16:46.960Z,528.87
2023-03-10T13:21:54.323Z,531.57
2023-03-10T13:27:01.403Z,531.45
2023-03-10T13:32:08.889Z,531.66
2023-03-10T13:37:16.010Z,532.93
2023-03-10T13:42:28.377Z,530.31
2023-03-10T13:47:30.555Z,529.54
2023-03-10T13:52:37.748Z,527.80
2023-03-10T13:57:45.051Z,527.88
2023-03-10T14:02:52.345Z,528.74
2023-03-10T14:07:59.561Z,529.25
2023-03-10T14:13:06.775Z,529.39
2023-03-10T14:18:14.042Z,527.59
2023-03-10T14:23:21.307Z,529.16
2023-03-10T14:28:28.640Z,528.32
2023-03-10T14:33:35.901Z,526.53
2023-03-10T14:38:43.114Z,529.57
2023-03-10T14:43:50.604Z,529.05
2023-03-10T14:48:57.986Z,528.29
2023-03-10T14:54:05.310Z,527.13
2023-03-10T14:59:12.742Z,528.04
2023-03-10T15:04:20.190Z,528.28
2023-03-10T15:09:27.635Z,528.10
2023-03-10T15:14:35.098Z,525.54
2023-03-10T15:19:42.818Z,527.39
2023-03-10T15:24:50.359Z,527.36
2023-03-10T15:29:57.770Z,523.01
2023-03-10T15:35:05.191Z,524.96
2023-03-10T15:40:12.576Z,518.58
2023-03-10T15:45:19.986Z,516.16
2023-03-10T15:50:30.087Z,518.03
2023-03-10T15:55:37.530Z,511.12
2023-03-10T16:00:53.674Z,510.93
2023-03-10T16:06:01.289Z,513.66
2023-03-10T16:11:08.580Z,510.75
2023-03-10T16:16:16.210Z,512.84
2023-03-10T16:21:23.401Z,508.27
2023-03-10T16:26:30.597Z,506.66
2023-03-10T16:31:38.158Z,506.11
2023-03-10T16:36:45.504Z,504.79
2023-03-10T16:41:52.687Z,508.19
2023-03-10T16:47:00.203Z,508.95
2023-03-10T16:52:07.648Z,505.64
2023-03-10T16:57:14.855Z,509.02
2023-03-10T17:02:22.056Z,507.83
2023-03-10T17:07:29.308Z,509.12
2023-03-10T17:12:36.741Z,510.93
2023-03-10T17:17:43.956Z,510.00
2023-03-10T17:22:51.218Z,508.19
2023-03-10T17:27:58.415Z,508.41
2023-03-10T17:33:05.634Z,506.27
2023-03-10T17:38:13.206Z,505.65
2023-03-10T17:43:33.410Z,507.15
2023-03-10T17:48:28.406Z,507.66
2023-03-10T17:53:35.692Z,508.50
2023-03-10T17:58:42.970Z,505.79
2023-03-10T18:03:50.556Z,507.75
2023-03-10T18:08:57.972Z,503.34
2023-03-10T18:14:05.238Z,504.87
2023-03-10T18:19:12.471Z,501.91
2023-03-10T18:24:19.712Z,499.64
2023-03-10T18:29:27.110Z,500.63
2023-03-10T18:34:34.787Z,500.77
2023-03-10T18:39:42.529Z,503.42
2023-03-10T18:44:50.232Z,505.55
2023-03-10T18:49:57.832Z,505.58
2023-03-10T18:55:05.624Z,505.73
2023-03-10T19:00:13.378Z,505.88
2023-03-10T19:05:20.989Z,503.77
2023-03-10T19:10:28.656Z,503.79
2023-03-10T19:15:36.220Z,500.94
2023-03-10T19:20:44.041Z,500.56
2023-03-10T19:25:51.506Z,502.76
2023-03-10T19:30:59.168Z,500.79
2023-03-10T19:36:06.946Z,497.65
2023-03-10T19:41:14.678Z,498.13
2023-03-10T19:46:22.213Z,497.11
2023-03-10T19:51:29.426Z,496.81
2023-03-10T19:56:37.013Z,496.95
2023-03-10T20:01:44.642Z,494.95
2023-03-10T20:06:52.082Z,494.17
2023-03-10T20:11:59.408Z,489.84
2023-03-10T20:17:06.976Z,491.38
2023-03-10T20:22:14.833Z,488.82
2023-03-10T20:27:22.540Z,488.47
2023-03-10T20:32:29.755Z,490.08
2023-03-10T20:37:37.138Z,488.96
2023-03-10T20:42:44.874Z,488.66
2023-03-10T20:47:52.673Z,487.36
2023-03-10T20:53:00.146Z,485.83
2023-03-10T20:58:07.365Z,485.26
2023-03-10T21:03:14.619Z,481.71
2023-03-10T21:08:22.105Z,482.37
2023-03-10T21:13:30.715Z,483.49
2023-03-10T21:18:38.058Z,482.67
2023-03-10T21:23:45.342Z,482.99
2023-03-10T21:28:52.610Z,483.07
2023-03-10T21:33:59.817Z,482.38
2023-03-10T21:39:07.211Z,483.09
2023-03-10T21:44:14.564Z,482.56
2023-03-10T21:49:21.809Z,480.19
2023-03-10T21:54:29.324Z,479.32
2023-03-10T21:59:36.658Z,475.47
2023-03-10T22:04:43.962Z,470.95
2023-03-10T22:09:51.296Z,470.60
2023-03-10T22:14:58.518Z,469.10
2023-03-10T22:20:05.746Z,469.39
2023-03-10T22:25:13.002Z,469.56
2023-03-10T22:30:20.390Z,469.84
2023-03-10T22:35:27.552Z,467.90
2023-03-10T22:40:34.763Z,468.59
2023-03-10T22:45:42.072Z,468.62
2023-03-10T22:50:49.284Z,470.70
2023-03-10T22:55:56.493Z,471.66
2023-03-10T23:01:04.077Z,470.92
2023-03-10T23:06:11.303Z,471.05
2023-03-10T23:11:18.535Z,471.33
2023-03-10T23:16:25.924Z,470.45
2023-03-10T23:21:33.019Z,471.65
2023-03-10T23:26:40.200Z,468.85
2023-03-10T23:31:47.523Z,467.99
2023-03-10T23:36:54.692Z,468.38
2023-03-10T23:42:02.042Z,467.63
2023-03-10T23:47:09.318Z,467.03
2023-03-10T23:52:16.549Z,467.38
2023-03-10T23:57:23.801Z,468.44
